Time;durP1;ratioP1;P1;durP2;ratioP2;P2;SDS_P1;SDS_P2;PMS_P1;PMS_P2;Temp;Humidity;BMP_temperature;BMP_pressure;BME280_temperature;BME280_humidity;BME280_pressure;Samples;Min_cycle;Max_cycle;Signal;HPM_P1;HPM_P2
2022/11/13 00:02:44;;;;;;;18.90;11.43;;;10.60;99.90;;;;;;5047170;28;20316;-81
2022/11/13 00:05:30;;;;;;;20.65;11.55;;;10.50;99.90;;;;;;5043766;28;20059;-81
2022/11/13 00:08:18;;;;;;;18.55;11.55;;;10.50;99.90;;;;;;5052078;28;20075;-81
2022/11/13 00:11:05;;;;;;;18.30;11.35;;;10.50;99.90;;;;;;5051640;28;20059;-81
2022/11/13 00:13:53;;;;;;;20.35;11.23;;;10.50;99.90;;;;;;5044858;28;20206;-81
2022/11/13 00:16:40;;;;;;;18.75;10.80;;;10.40;99.90;;;;;;5059527;28;20182;-81
2022/11/13 00:19:25;;;;;;;16.38;10.52;;;10.40;99.90;;;;;;5051500;28;20187;-81
2022/11/13 00:22:10;;;;;;;20.38;10.50;;;10.50;99.90;;;;;;5034366;28;20223;-81
2022/11/13 00:24:56;;;;;;;16.73;10.30;;;10.40;99.90;;;;;;5047643;28;20056;-81
2022/11/13 00:27:42;;;;;;;18.33;10.73;;;10.40;99.90;;;;;;5049996;28;20072;-81
2022/11/13 00:30:28;;;;;;;17.88;10.15;;;10.40;99.90;;;;;;5046647;28;20603;-81
2022/11/13 00:33:14;;;;;;;16.55;10.05;;;10.40;99.90;;;;;;5042090;28;20094;-81
2022/11/13 00:36:04;;;;;;;17.73;10.25;;;10.40;99.90;;;;;;5037900;28;20060;-81
2022/11/13 00:38:49;;;;;;;17.23;9.80;;;10.30;99.90;;;;;;5044568;28;20519;-81
2022/11/13 00:41:35;;;;;;;16.23;9.63;;;10.50;99.90;;;;;;5050920;28;20059;-81
2022/11/13 00:44:20;;;;;;;18.65;10.07;;;10.30;99.90;;;;;;5050522;28;20060;-81
2022/11/13 00:47:08;;;;;;;14.65;9.77;;;10.30;99.90;;;;;;5050681;28;20052;-81
2022/11/13 00:49:55;;;;;;;18.23;10.77;;;10.30;99.90;;;;;;5049250;28;20102;-80
2022/11/13 00:52:41;;;;;;;16.20;9.48;;;10.30;99.90;;;;;;5050233;28;20124;-81
2022/11/13 00:55:26;;;;;;;16.63;9.77;;;10.30;99.90;;;;;;5042653;28;20065;-80
2022/11/13 00:58:12;;;;;;;16.02;10.23;;;10.30;99.90;;;;;;5050914;28;20417;-81
2022/11/13 01:01:04;;;;;;;16.02;9.50;;;10.30;99.90;;;;;;5054406;28;20055;-80
2022/11/13 01:03:49;;;;;;;15.77;9.65;;;10.30;99.90;;;;;;5048505;28;20207;-81
2022/11/13 01:06:37;;;;;;;14.45;9.57;;;10.30;99.90;;;;;;5049999;28;20098;-80
2022/11/13 01:09:22;;;;;;;20.48;9.93;;;10.30;99.90;;;;;;5042315;28;20817;-81
2022/11/13 01:12:07;;;;;;;17.50;9.90;;;10.30;99.90;;;;;;5055367;28;20126;-81
2022/11/13 01:14:53;;;;;;;17.42;10.07;;;10.30;99.90;;;;;;5049702;28;20098;-81
2022/11/13 01:17:41;;;;;;;17.75;10.18;;;10.30;99.90;;;;;;5051082;28;20224;-81
2022/11/13 01:20:27;;;;;;;16.25;9.55;;;10.30;99.90;;;;;;5055064;28;20141;-81
2022/11/13 01:23:14;;;;;;;16.67;9.50;;;10.20;99.90;;;;;;5050299;28;20094;-81
2022/11/13 01:26:06;;;;;;;18.02;9.75;;;10.30;99.90;;;;;;5042019;28;20064;-80
2022/11/13 01:28:51;;;;;;;14.68;9.05;;;10.20;99.90;;;;;;5066953;28;20059;-81
2022/11/13 01:31:57;;;;;;;13.80;8.82;;;10.20;99.90;;;;;;5026427;28;20074;-81
2022/11/13 01:34:43;;;;;;;14.00;8.75;;;10.20;99.90;;;;;;5044376;28;20335;-81
2022/11/13 01:37:29;;;;;;;15.48;9.20;;;10.20;99.90;;;;;;5050725;28;20063;-81
2022/11/13 01:40:16;;;;;;;16.08;8.57;;;10.20;99.90;;;;;;5048614;28;20760;-81
2022/11/13 01:43:19;;;;;;;13.85;8.52;;;10.20;99.90;;;;;;5058244;28;20067;-80
2022/11/13 01:46:29;;;;;;;11.50;7.72;;;10.20;99.90;;;;;;5053048;28;20124;-81
2022/11/13 01:49:25;;;;;;;12.43;7.82;;;10.20;99.90;;;;;;5046907;28;20095;-81
2022/11/13 01:52:13;;;;;;;12.77;7.32;;;10.20;99.90;;;;;;5048903;28;20059;-81
2022/11/13 01:55:01;;;;;;;15.20;8.75;;;10.20;99.90;;;;;;5047811;28;20110;-81
2022/11/13 01:57:48;;;;;;;15.18;7.70;;;10.20;99.90;;;;;;5057337;28;20130;-81
2022/11/13 02:00:34;;;;;;;13.75;8.27;;;10.20;99.90;;;;;;5053423;28;20103;-81
2022/11/13 02:03:21;;;;;;;11.57;7.38;;;10.20;99.90;;;;;;5049334;28;20075;-81
2022/11/13 02:06:06;;;;;;;12.48;7.78;;;10.10;99.90;;;;;;5048529;28;20425;-81
2022/11/13 02:08:52;;;;;;;11.88;7.68;;;10.10;99.90;;;;;;5041972;28;20075;-81
2022/11/13 02:11:38;;;;;;;11.52;6.90;;;10.10;99.90;;;;;;5047751;28;20060;-81
2022/11/13 02:14:29;;;;;;;14.15;7.90;;;10.10;99.90;;;;;;5040993;28;20051;-80
2022/11/13 02:17:15;;;;;;;;;;;10.10;99.90;;;;;;5050422;28;20056;-81
2022/11/13 02:20:03;;;;;;;15.55;8.30;;;10.10;99.90;;;;;;5033013;28;20000;-81
2022/11/13 02:22:52;;;;;;;14.00;8.35;;;10.10;99.90;;;;;;5052581;28;20059;-81
2022/11/13 02:25:40;;;;;;;11.88;7.85;;;10.10;99.90;;;;;;5047772;28;20056;-81
2022/11/13 02:28:25;;;;;;;13.38;7.75;;;10.10;99.90;;;;;;5051093;28;20064;-81
2022/11/13 02:31:13;;;;;;;15.98;8.65;;;10.10;99.90;;;;;;5048742;28;20056;-81
2022/11/13 02:33:59;;;;;;;12.32;7.60;;;10.10;99.90;;;;;;5047582;28;20072;-80
2022/11/13 02:36:44;;;;;;;13.90;8.00;;;10.10;99.90;;;;;;5060839;28;20131;-81
2022/11/13 02:39:30;;;;;;;13.52;7.38;;;10.10;99.90;;;;;;5044328;28;20059;-81
2022/11/13 02:42:16;;;;;;;10.55;7.07;;;10.00;99.90;;;;;;5055991;28;20543;-80
2022/11/13 02:45:02;;;;;;;12.40;7.78;;;10.00;99.90;;;;;;5052576;28;20125;-81
2022/11/13 02:47:48;;;;;;;15.50;8.50;;;10.00;99.90;;;;;;5057554;28;20194;-80
2022/11/13 02:50:35;;;;;;;13.27;8.75;;;10.00;99.90;;;;;;5048542;28;20056;-81
2022/11/13 02:53:21;;;;;;;14.38;8.63;;;10.00;99.90;;;;;;5046684;28;20734;-81
2022/11/13 02:56:07;;;;;;;14.50;8.60;;;10.00;99.90;;;;;;5047700;28;20067;-80
2022/11/13 02:58:54;;;;;;;14.90;8.20;;;10.00;99.90;;;;;;5044968;28;20060;-81
2022/11/13 03:01:39;;;;;;;13.27;8.23;;;10.00;99.90;;;;;;5034669;28;20122;-81
2022/11/13 03:04:24;;;;;;;13.27;8.07;;;10.00;99.90;;;;;;5048342;28;20098;-81
2022/11/13 03:07:10;;;;;;;16.05;8.02;;;10.00;99.90;;;;;;5057887;28;20075;-80
2022/11/13 03:09:55;;;;;;;14.25;8.30;;;10.00;99.90;;;;;;5046334;28;20453;-80
2022/11/13 03:12:41;;;;;;;14.32;7.90;;;10.00;99.90;;;;;;5048507;28;20052;-81
2022/11/13 03:15:28;;;;;;;12.35;7.35;;;10.00;99.90;;;;;;5040990;28;20067;-80
2022/11/13 03:18:13;;;;;;;13.70;8.00;;;9.90;99.90;;;;;;5046141;28;20152;-80
2022/11/13 03:20:59;;;;;;;12.95;7.78;;;9.90;99.90;;;;;;5057263;28;20059;-80
2022/11/13 03:23:45;;;;;;;15.10;7.95;;;9.90;99.90;;;;;;5043683;28;20094;-81
2022/11/13 03:26:30;;;;;;;12.95;7.95;;;9.90;99.90;;;;;;5028757;28;20108;-80
2022/11/13 03:29:16;;;;;;;14.18;7.80;;;9.80;99.90;;;;;;5048073;28;20123;-80
2022/11/13 03:32:03;;;;;;;11.63;7.30;;;9.80;99.90;;;;;;5048081;28;20154;-80
2022/11/13 03:34:48;;;;;;;10.98;6.65;;;9.80;99.90;;;;;;5050489;28;20199;-80
2022/11/13 03:37:34;;;;;;;12.20;7.40;;;9.80;99.90;;;;;;5045196;28;20094;-81
2022/11/13 03:40:19;;;;;;;14.23;7.70;;;9.70;99.90;;;;;;5060805;28;20571;-81
2022/11/13 03:43:05;;;;;;;10.82;7.30;;;9.70;99.90;;;;;;5051256;28;20107;-81
2022/11/13 03:45:50;;;;;;;12.95;7.70;;;9.70;99.90;;;;;;5052053;28;20659;-80
2022/11/13 03:48:38;;;;;;;11.82;7.38;;;9.70;99.90;;;;;;5052149;28;20273;-80
2022/11/13 03:51:23;;;;;;;14.95;7.88;;;9.70;99.90;;;;;;5051990;28;20244;-81
2022/11/13 03:54:08;;;;;;;11.25;7.28;;;9.60;99.90;;;;;;5056362;28;20059;-81
2022/11/13 03:56:54;;;;;;;13.55;7.63;;;9.60;99.90;;;;;;5069222;28;20052;-80
2022/11/13 03:59:40;;;;;;;13.57;7.30;;;9.60;99.90;;;;;;5053516;28;20183;-80
2022/11/13 04:02:25;;;;;;;12.60;7.30;;;9.50;99.90;;;;;;5047777;28;20132;-80
2022/11/13 04:05:12;;;;;;;19.23;7.40;;;9.50;99.90;;;;;;5050207;28;20587;-80
2022/11/13 04:07:58;;;;;;;15.40;7.47;;;9.60;99.90;;;;;;5051702;28;20056;-80
2022/11/13 04:10:44;;;;;;;13.25;7.20;;;9.50;99.90;;;;;;5047698;28;20064;-81
2022/11/13 04:13:29;;;;;;;11.70;6.90;;;9.40;99.90;;;;;;5055769;28;20179;-80
2022/11/13 04:16:15;;;;;;;13.18;7.53;;;9.40;99.90;;;;;;5051372;28;20574;-80
2022/11/13 04:19:01;;;;;;;11.38;6.50;;;9.40;99.90;;;;;;5050140;28;20071;-80
2022/11/13 04:21:48;;;;;;;13.90;7.18;;;9.40;99.90;;;;;;5050278;28;20095;-80
2022/11/13 05:51:21;;;;;;;10.48;5.35;;;9.00;99.90;;;;;;5171532;22;20090;-86
2022/11/13 05:54:06;;;;;;;8.52;5.15;;;9.00;99.90;;;;;;5088251;28;20070;-90
2022/11/13 05:56:52;;;;;;;10.48;5.63;;;8.90;99.90;;;;;;5086525;28;20051;-85
2022/11/13 05:59:37;;;;;;;10.75;6.18;;;8.90;99.90;;;;;;5083902;28;20459;-84
2022/11/13 06:02:23;;;;;;;10.90;6.28;;;8.90;99.90;;;;;;5083016;28;20047;-84
2022/11/13 06:05:09;;;;;;;12.80;7.22;;;8.90;99.90;;;;;;5101910;28;20045;-84
2022/11/13 06:07:55;;;;;;;9.55;6.05;;;8.90;99.90;;;;;;5088004;28;20113;-84
2022/11/13 06:10:41;;;;;;;11.82;6.03;;;8.80;99.90;;;;;;5075998;28;20606;-84
2022/11/13 06:13:26;;;;;;;11.73;6.22;;;8.80;99.90;;;;;;5086648;28;20050;-84
2022/11/13 06:16:13;;;;;;;11.20;5.90;;;8.80;99.90;;;;;;5084452;28;20063;-83
2022/11/13 06:19:00;;;;;;;9.80;6.22;;;8.70;99.90;;;;;;5103989;28;20054;-84
2022/11/13 06:21:45;;;;;;;11.70;6.03;;;8.70;99.90;;;;;;5091783;28;20590;-83
2022/11/13 06:24:32;;;;;;;12.82;6.00;;;8.70;99.90;;;;;;5097159;28;20620;-83
2022/11/13 06:27:17;;;;;;;10.13;5.75;;;8.70;99.90;;;;;;5106175;28;20046;-84
2022/11/13 06:30:03;;;;;;;10.30;6.38;;;8.70;99.90;;;;;;5098332;28;20055;-84
2022/11/13 06:32:52;;;;;;;11.05;6.05;;;8.70;99.90;;;;;;5092964;28;20648;-83
2022/11/13 06:35:38;;;;;;;10.60;5.93;;;8.60;99.90;;;;;;5109172;28;20124;-83
2022/11/13 06:38:24;;;;;;;11.07;5.20;;;8.60;99.90;;;;;;5102203;28;20519;-84
2022/11/13 06:41:12;;;;;;;10.95;5.65;;;8.60;99.90;;;;;;5099420;28;20126;-81
2022/11/13 06:43:58;;;;;;;9.40;5.32;;;8.60;99.90;;;;;;5086255;28;20055;-87
2022/11/13 06:46:44;;;;;;;9.85;5.03;;;8.50;99.90;;;;;;5097578;28;20692;-87
2022/11/13 06:49:29;;;;;;;11.18;5.55;;;8.50;99.90;;;;;;5090945;28;20182;-86
2022/11/13 06:52:15;;;;;;;9.10;5.20;;;8.50;99.90;;;;;;5089606;28;20063;-88
2022/11/13 06:55:00;;;;;;;7.82;4.80;;;8.50;99.90;;;;;;5088322;28;20668;-86
2022/11/13 06:57:47;;;;;;;9.15;4.93;;;8.50;99.90;;;;;;5099991;28;20055;-86
2022/11/13 07:00:32;;;;;;;8.82;4.97;;;8.40;99.90;;;;;;5095588;28;20522;-86
2022/11/13 07:03:19;;;;;;;8.30;5.20;;;8.40;99.90;;;;;;5097183;28;20106;-85
2022/11/13 07:06:06;;;;;;;7.20;4.68;;;8.50;99.90;;;;;;5088005;28;20072;-87
2022/11/13 07:08:52;;;;;;;8.82;4.85;;;8.40;99.90;;;;;;5105375;28;20128;-86
2022/11/13 07:11:37;;;;;;;8.43;4.63;;;8.40;99.90;;;;;;5109852;28;20530;-87
2022/11/13 07:14:24;;;;;;;9.35;4.85;;;8.40;99.90;;;;;;5104474;28;20180;-87
2022/11/13 07:17:10;;;;;;;9.27;4.68;;;8.40;99.90;;;;;;5098280;28;20055;-87
2022/11/13 07:20:02;;;;;;;10.55;6.05;;;8.40;99.90;;;;;;5080888;28;20211;-87
2022/11/13 07:22:47;;;;;;;16.98;9.10;;;8.40;99.90;;;;;;5097480;28;20506;-87
2022/11/13 07:25:33;;;;;;;19.65;10.10;;;8.40;99.90;;;;;;5087479;28;20063;-88
2022/11/13 07:28:19;;;;;;;16.83;9.55;;;8.40;99.90;;;;;;5100819;28;20093;-85
2022/11/13 07:31:07;;;;;;;18.55;9.57;;;8.40;99.90;;;;;;5106747;28;20074;-88
2022/11/13 07:33:52;;;;;;;15.88;8.80;;;8.40;99.90;;;;;;5102421;28;20059;-82
2022/11/13 07:36:38;;;;;;;14.30;8.20;;;8.40;99.90;;;;;;5087655;28;20071;-86
2022/11/13 07:39:23;;;;;;;14.13;8.23;;;8.40;99.90;;;;;;5109532;28;20055;-86
2022/11/13 07:42:09;;;;;;;15.73;9.63;;;8.40;99.90;;;;;;5104155;28;20059;-85
2022/11/13 07:44:54;;;;;;;16.52;8.65;;;8.40;99.90;;;;;;5097466;28;20125;-86
2022/11/13 07:47:41;;;;;;;14.88;8.63;;;8.40;99.90;;;;;;5085894;28;20137;-87
2022/11/13 07:50:27;;;;;;;17.15;8.20;;;8.60;99.90;;;;;;5097167;28;20114;-83
2022/11/13 07:53:13;;;;;;;12.20;6.88;;;8.40;99.90;;;;;;5088495;28;20141;-84
2022/11/13 07:56:01;;;;;;;14.15;7.53;;;8.50;99.90;;;;;;5088098;28;20140;-83
2022/11/13 07:58:46;;;;;;;14.27;6.72;;;8.50;99.90;;;;;;5090947;28;20059;-85
2022/11/13 08:01:32;;;;;;;12.15;7.25;;;8.60;99.90;;;;;;5086681;28;20093;-85
2022/11/13 08:04:19;;;;;;;13.27;7.25;;;8.60;99.90;;;;;;5102882;28;20054;-84
2022/11/13 08:07:05;;;;;;;12.35;7.72;;;8.70;99.90;;;;;;5097925;28;20082;-85
2022/11/13 08:09:50;;;;;;;13.10;7.43;;;8.70;99.90;;;;;;5105044;28;20067;-85
2022/11/13 08:12:36;;;;;;;13.10;7.20;;;8.70;99.90;;;;;;5094558;28;20055;-85
2022/11/13 08:15:21;;;;;;;14.27;7.15;;;8.80;99.90;;;;;;5080625;28;20534;-84
2022/11/13 08:18:07;;;;;;;11.55;6.93;;;8.80;99.90;;;;;;5098669;28;20463;-85
2022/11/13 08:20:54;;;;;;;12.07;7.40;;;8.90;99.90;;;;;;5098823;28;20073;-85
2022/11/13 08:23:41;;;;;;;13.48;6.70;;;8.90;99.90;;;;;;5094811;28;20055;-91
2022/11/13 08:26:26;;;;;;;10.05;5.70;;;9.00;99.90;;;;;;5090016;28;20058;-90
2022/11/13 08:29:12;;;;;;;10.65;6.28;;;9.10;99.90;;;;;;5102655;28;20054;-89
2022/11/13 08:31:58;;;;;;;10.90;6.13;;;9.20;99.90;;;;;;5106766;28;20113;-91
2022/11/13 08:34:44;;;;;;;10.88;6.55;;;9.20;99.90;;;;;;5087727;28;20117;-90
2022/11/13 08:37:32;;;;;;;11.80;6.38;;;9.30;99.90;;;;;;5085119;28;20104;-89
2022/11/13 08:40:17;;;;;;;9.23;6.22;;;9.30;99.90;;;;;;5103203;28;20157;-90
2022/11/13 08:43:04;;;;;;;10.30;6.35;;;9.40;99.90;;;;;;5099209;28;20059;-90
2022/11/13 08:45:49;;;;;;;9.95;5.88;;;9.40;99.90;;;;;;5085747;28;20055;-90
2022/11/13 08:48:44;;;;;;;12.52;5.65;;;9.50;99.90;;;;;;5094644;28;20542;-92
2022/11/13 08:51:30;;;;;;;10.57;5.32;;;9.50;99.90;;;;;;5091269;28;20055;-88
2022/11/13 08:54:20;;;;;;;11.90;6.45;;;9.60;99.90;;;;;;5092152;28;20827;-91
2022/11/13 08:57:06;;;;;;;8.73;5.10;;;9.70;99.90;;;;;;5088096;28;20051;-91
2022/11/13 08:59:53;;;;;;;10.55;5.75;;;9.80;99.90;;;;;;5076416;28;20049;-92
2022/11/13 09:02:45;;;;;;;11.52;5.60;;;9.80;99.90;;;;;;5079283;28;20105;-92
2022/11/13 09:05:31;;;;;;;11.30;5.65;;;9.90;99.90;;;;;;5079056;28;20170;-90
2022/11/13 09:08:17;;;;;;;8.77;5.43;;;9.90;99.90;;;;;;5076784;28;20048;-90
2022/11/13 09:11:05;;;;;;;11.93;5.28;;;9.90;99.90;;;;;;5087324;28;20060;-93
2022/11/13 09:13:56;;;;;;;9.18;5.07;;;10.00;99.90;;;;;;5084986;28;20098;-93
2022/11/13 09:16:42;;;;;;;8.30;5.07;;;10.10;99.90;;;;;;5080447;28;20082;-86
2022/11/13 09:19:28;;;;;;;8.32;4.90;;;10.10;99.90;;;;;;5077434;28;20055;-86
2022/11/13 09:22:13;;;;;;;11.52;4.80;;;10.20;99.90;;;;;;5080645;28;20101;-91
2022/11/13 09:24:59;;;;;;;7.45;4.43;;;10.30;99.90;;;;;;5078939;28;20468;-95
2022/11/13 09:27:52;;;;;;;7.53;4.32;;;10.30;99.90;;;;;;5086769;28;20132;-85
2022/11/13 09:30:39;;;;;;;8.45;4.75;;;10.40;99.90;;;;;;5085886;28;20474;-86
2022/11/13 09:37:18;;;;;;;11.27;4.78;;;10.50;99.90;;;;;;5077627;28;20120;-86
2022/11/13 09:40:04;;;;;;;11.30;4.85;;;10.60;99.90;;;;;;5074648;28;20055;-86
2022/11/13 09:42:51;;;;;;;7.20;4.05;;;10.70;99.90;;;;;;5085422;28;20070;-86
2022/11/13 09:45:37;;;;;;;7.78;4.70;;;10.70;99.90;;;;;;5070127;28;20155;-86
2022/11/13 09:48:28;;;;;;;9.50;5.68;;;10.80;99.90;;;;;;5082687;28;20682;-86
2022/11/13 09:51:18;;;;;;;10.80;6.53;;;10.80;99.90;;;;;;5082697;28;20058;-86
2022/11/13 09:54:05;;;;;;;11.75;7.13;;;10.90;99.90;;;;;;5087307;28;20051;-86
2022/11/13 09:56:56;;;;;;;18.60;11.52;;;10.90;99.90;;;;;;5078180;28;20054;-86
2022/11/13 09:59:49;;;;;;;19.23;10.25;;;11.00;99.90;;;;;;5074545;28;20131;-87
2022/11/13 10:02:43;;;;;;;11.23;6.22;;;11.10;99.90;;;;;;5098138;28;20050;-86
2022/11/13 10:05:35;;;;;;;10.10;5.72;;;11.10;99.90;;;;;;5087673;28;20085;-85
2022/11/13 10:08:21;;;;;;;;;;;11.10;99.90;;;;;;5093328;28;20068;-87
2022/11/13 10:11:12;;;;;;;9.40;5.05;;;11.20;99.90;;;;;;5087513;28;19950;-86
2022/11/13 10:14:01;;;;;;;9.27;5.25;;;11.20;99.90;;;;;;5093291;28;20063;-86
2022/11/13 10:16:52;;;;;;;9.10;5.28;;;11.30;99.90;;;;;;5096653;28;20252;-87
2022/11/13 10:19:40;;;;;;;10.02;5.75;;;11.30;99.90;;;;;;5089252;28;20427;-86
2022/11/13 10:22:30;;;;;;;10.93;5.30;;;11.40;99.90;;;;;;5083735;28;20585;-85
2022/11/13 10:25:16;;;;;;;10.57;5.95;;;11.40;99.90;;;;;;5034708;28;20068;-80
2022/11/13 10:28:12;;;;;;;10.82;6.70;;;11.50;99.90;;;;;;5029585;28;20088;-80
2022/11/13 10:30:58;;;;;;;11.27;6.50;;;11.50;99.90;;;;;;5037625;28;20188;-80
2022/11/13 10:33:45;;;;;;;11.07;6.60;;;11.60;99.90;;;;;;5046014;28;20068;-80
2022/11/13 10:36:36;;;;;;;11.57;6.43;;;11.60;99.90;;;;;;5023541;28;20060;-80
2022/11/13 10:39:24;;;;;;;13.10;6.90;;;11.70;99.90;;;;;;5020776;28;20095;-80
2022/11/13 10:42:21;;;;;;;10.77;6.45;;;11.70;99.90;;;;;;5029694;28;20139;-80
2022/11/13 10:45:14;;;;;;;10.45;6.32;;;11.80;99.90;;;;;;5045039;28;20064;-80
2022/11/13 10:47:59;;;;;;;8.65;5.30;;;11.80;99.90;;;;;;5027060;28;20060;-80
2022/11/13 10:50:53;;;;;;;9.93;5.50;;;11.90;99.90;;;;;;5029592;28;20086;-80
2022/11/13 10:53:40;;;;;;;11.13;5.40;;;11.90;99.90;;;;;;5047983;28;20059;-80
2022/11/13 10:59:40;;;;;;;15.55;6.22;;;12.00;99.90;;;;;;5022886;28;20045;-81
2022/11/13 11:02:27;;;;;;;11.02;5.45;;;12.10;99.90;;;;;;5027909;28;20087;-81
2022/11/13 11:05:18;;;;;;;10.15;5.65;;;12.10;99.90;;;;;;5027355;28;20165;-81
2022/11/13 11:08:09;;;;;;;9.40;5.70;;;12.20;99.90;;;;;;5024799;28;20072;-81
2022/11/13 11:14:18;;;;;;;9.80;5.45;;;12.30;99.90;;;;;;5027704;28;20056;-81
2022/11/13 11:17:04;;;;;;;9.35;5.18;;;12.30;99.90;;;;;;5023920;28;20417;-81
2022/11/13 11:19:57;;;;;;;8.77;4.63;;;12.40;99.90;;;;;;5037314;28;20100;-81
2022/11/13 11:22:44;;;;;;;12.38;5.63;;;12.40;99.90;;;;;;5036129;28;20696;-81
2022/11/13 11:25:36;;;;;;;10.15;5.60;;;12.40;99.90;;;;;;5032942;28;20184;-81
2022/11/13 11:28:29;;;;;;;11.20;5.85;;;12.50;99.90;;;;;;5029911;28;20087;-81
2022/11/13 11:31:20;;;;;;;11.48;5.38;;;12.60;99.90;;;;;;5048758;28;20060;-81
2022/11/13 11:34:16;;;;;;;11.40;5.85;;;12.60;99.90;;;;;;5046026;28;20135;-81
2022/11/13 11:37:12;;;;;;;9.48;5.57;;;12.70;99.90;;;;;;5027998;28;20049;-81
2022/11/13 11:40:03;;;;;;;11.18;5.00;;;12.70;99.90;;;;;;5021952;28;20053;-81
2022/11/13 11:42:54;;;;;;;10.05;5.20;;;12.80;99.90;;;;;;5027267;28;20055;-81
2022/11/13 11:45:42;;;;;;;8.20;4.75;;;12.90;99.90;;;;;;5026682;28;20075;-82
2022/11/13 11:48:34;;;;;;;8.60;5.03;;;12.90;99.40;;;;;;5028247;28;20139;-81
2022/11/13 11:51:26;;;;;;;9.32;4.72;;;12.90;99.60;;;;;;5034272;28;20115;-81
2022/11/13 11:54:27;;;;;;;8.30;4.50;;;13.00;98.80;;;;;;5026723;28;20213;-81
2022/11/13 11:57:22;;;;;;;10.07;4.78;;;13.00;98.70;;;;;;5028193;28;20632;-82
2022/11/13 12:00:13;;;;;;;8.63;4.63;;;13.10;98.70;;;;;;5023882;28;20410;-81
2022/11/13 12:03:19;;;;;;;9.98;5.00;;;13.10;98.50;;;;;;5031268;28;20072;-82
2022/11/13 12:06:11;;;;;;;10.60;5.45;;;13.20;98.10;;;;;;5039086;28;20060;-81
2022/11/13 12:08:59;;;;;;;;;;;13.20;97.40;;;;;;5052529;28;20643;-81
2022/11/13 12:11:50;;;;;;;9.43;5.13;;;13.30;97.20;;;;;;5051830;28;19947;-81
2022/11/13 12:14:43;;;;;;;9.18;4.88;;;13.40;97.00;;;;;;5023861;28;20060;-81
2022/11/13 12:17:46;;;;;;;9.30;5.03;;;13.30;96.80;;;;;;5035002;28;20531;-81
2022/11/13 12:20:38;;;;;;;9.20;4.78;;;13.40;96.50;;;;;;5037637;28;20170;-81
2022/11/13 12:23:44;;;;;;;7.68;4.38;;;13.50;96.00;;;;;;5036209;28;20587;-81
2022/11/13 12:26:43;;;;;;;9.02;4.28;;;13.40;94.60;;;;;;5035326;28;20068;-81
2022/11/13 12:29:39;;;;;;;9.18;4.60;;;13.50;94.30;;;;;;5026854;28;20110;-81
2022/11/13 12:32:43;;;;;;;8.38;4.68;;;13.50;93.90;;;;;;5036083;28;20048;-81
2022/11/13 12:35:29;;;;;;;8.52;4.53;;;13.40;94.00;;;;;;5051229;28;20881;-82
2022/11/13 12:38:26;;;;;;;8.30;4.55;;;13.60;94.10;;;;;;5051722;28;20056;-82
2022/11/13 12:41:17;;;;;;;10.00;5.10;;;13.60;93.80;;;;;;5032103;28;20606;-81
2022/11/13 12:44:17;;;;;;;;;;;13.60;93.70;;;;;;5030200;28;20537;-82
2022/11/13 12:47:03;;;;;;;9.73;5.00;;;13.70;93.60;;;;;;5040579;28;20336;-82
2022/11/13 12:49:59;;;;;;;11.07;5.15;;;13.70;93.10;;;;;;5034747;28;20072;-82
2022/11/13 12:52:44;;;;;;;9.02;5.15;;;13.80;92.50;;;;;;5034856;28;20060;-82
2022/11/13 12:55:31;;;;;;;8.75;4.72;;;13.80;91.70;;;;;;5030473;28;20060;-82
2022/11/13 12:58:20;;;;;;;7.25;4.07;;;13.90;92.00;;;;;;5027379;28;20053;-82
2022/11/13 13:01:13;;;;;;;7.22;3.90;;;13.90;90.30;;;;;;5026966;28;20056;-82
2022/11/13 13:04:24;;;;;;;9.73;4.05;;;13.90;89.50;;;;;;5044283;28;20605;-83
2022/11/13 13:07:23;;;;;;;8.30;4.38;;;14.00;89.80;;;;;;5030547;28;20131;-82
2022/11/13 13:10:14;;;;;;;8.40;3.85;;;14.00;90.70;;;;;;5042073;28;20180;-84
2022/11/13 13:13:01;;;;;;;;;;;14.00;89.70;;;;;;5012112;28;20116;-85
2022/11/13 13:15:55;;;;;;;7.68;4.00;;;14.00;89.60;;;;;;5016206;28;20124;-83
2022/11/13 13:18:41;;;;;;;7.00;4.20;;;14.10;90.00;;;;;;5027325;28;20543;-86
2022/11/13 13:21:27;;;;;;;9.88;4.10;;;14.20;90.10;;;;;;5028241;28;20524;-82
2022/11/13 13:24:29;;;;;;;6.00;4.00;;;14.20;90.80;;;;;;5030059;28;20061;-85
2022/11/13 13:27:23;;;;;;;9.10;4.78;;;14.30;91.20;;;;;;5028054;28;20580;-82
2022/11/13 13:30:20;;;;;;;9.20;4.88;;;14.30;91.40;;;;;;5026690;28;20124;-82
2022/11/13 13:33:22;;;;;;;9.98;5.05;;;14.30;91.20;;;;;;5029163;28;20052;-82
2022/11/13 13:36:21;;;;;;;9.18;4.43;;;14.40;90.80;;;;;;5025402;28;20052;-86
2022/11/13 13:39:20;;;;;;;7.90;4.78;;;14.60;90.90;;;;;;5029820;28;20099;-83
2022/11/13 13:42:19;;;;;;;8.60;4.72;;;14.40;91.20;;;;;;5012367;28;20049;-83
2022/11/13 13:45:14;;;;;;;9.30;5.13;;;14.50;91.20;;;;;;5035459;28;20056;-87
2022/11/13 13:48:01;;;;;;;9.60;5.07;;;14.50;91.80;;;;;;5026522;28;20056;-82
2022/11/13 13:50:48;;;;;;;7.88;4.85;;;14.50;91.70;;;;;;5024455;28;20049;-81
2022/11/13 13:53:35;;;;;;;9.20;4.80;;;14.50;91.50;;;;;;5027270;28;20061;-82
2022/11/13 13:56:21;;;;;;;8.95;5.13;;;14.50;92.00;;;;;;5027564;28;20063;-82
2022/11/13 13:59:14;;;;;;;8.07;4.90;;;14.50;92.30;;;;;;5029150;28;20060;-82
2022/11/13 14:02:02;;;;;;;9.40;5.07;;;14.50;91.90;;;;;;5028996;28;20095;-83
2022/11/13 14:04:53;;;;;;;18.63;6.22;;;14.60;91.70;;;;;;5028736;28;20056;-82
2022/11/13 14:07:46;;;;;;;23.55;7.35;;;14.50;92.00;;;;;;5028428;28;20052;-81
2022/11/13 14:10:32;;;;;;;12.70;6.00;;;14.60;92.00;;;;;;5034418;28;20052;-81
2022/11/13 14:13:24;;;;;;;11.15;6.20;;;14.60;92.20;;;;;;5039171;22;20176;-82
2022/11/13 14:16:11;;;;;;;11.27;6.03;;;14.60;92.40;;;;;;5013354;28;20057;-82
2022/11/13 14:19:11;;;;;;;10.82;6.18;;;14.60;93.00;;;;;;5007191;28;20188;-87
2022/11/13 14:21:59;;;;;;;9.68;6.07;;;14.70;93.10;;;;;;5009596;28;20073;-83
2022/11/13 14:24:47;;;;;;;12.30;6.18;;;14.70;93.40;;;;;;5001338;28;20052;-83
2022/11/13 14:27:33;;;;;;;8.63;5.50;;;14.70;93.20;;;;;;5007170;28;20785;-83
2022/11/13 14:30:24;;;;;;;10.88;6.30;;;14.70;93.30;;;;;;4997367;28;20453;-83
2022/11/13 14:33:14;;;;;;;10.75;6.18;;;14.70;93.70;;;;;;5009176;28;20196;-83
2022/11/13 14:36:00;;;;;;;13.77;6.53;;;14.70;94.20;;;;;;4992986;28;20049;-83
2022/11/13 14:38:48;;;;;;;9.77;6.65;;;14.70;94.40;;;;;;4998239;28;20163;-83
2022/11/13 14:41:36;;;;;;;10.63;6.85;;;14.70;94.50;;;;;;5002330;28;20064;-83
2022/11/13 14:44:31;;;;;;;10.25;7.00;;;14.60;94.60;;;;;;4999605;28;20207;-82
2022/11/13 14:47:25;;;;;;;11.60;7.45;;;14.60;94.60;;;;;;4989599;28;20061;-82
2022/11/13 14:50:23;;;;;;;11.98;7.10;;;14.70;94.90;;;;;;4999764;28;20053;-81
2022/11/13 14:53:10;;;;;;;12.57;7.15;;;14.70;95.50;;;;;;5005908;28;20103;-84
2022/11/13 14:55:58;;;;;;;11.13;7.32;;;14.70;95.50;;;;;;5001114;28;20056;-86
2022/11/13 14:58:46;;;;;;;11.02;7.22;;;14.60;95.90;;;;;;5003604;28;20052;-88
2022/11/13 15:01:31;;;;;;;13.30;8.07;;;14.60;96.30;;;;;;5005589;28;20181;-83
2022/11/13 15:04:17;;;;;;;12.30;8.25;;;14.60;96.70;;;;;;5004756;28;20172;-83
2022/11/13 15:07:19;;;;;;;17.88;10.32;;;14.50;96.90;;;;;;5005039;28;20056;-83
2022/11/13 15:10:05;;;;;;;17.27;9.70;;;14.50;97.00;;;;;;5006065;28;20078;-83
2022/11/13 15:12:50;;;;;;;15.52;9.10;;;14.50;97.40;;;;;;5002531;28;20056;-83
2022/11/13 15:15:36;;;;;;;12.98;8.70;;;14.50;97.60;;;;;;5003025;28;20056;-83
2022/11/13 15:18:21;;;;;;;13.38;8.10;;;14.40;98.30;;;;;;5002888;28;20052;-83
2022/11/13 15:21:07;;;;;;;13.13;8.07;;;14.40;98.50;;;;;;5004930;28;20052;-83
2022/11/13 15:23:54;;;;;;;14.18;8.27;;;14.30;99.00;;;;;;5004457;28;20592;-83
2022/11/13 15:26:40;;;;;;;12.57;7.10;;;14.30;99.40;;;;;;5006475;28;20419;-83
2022/11/13 15:29:25;;;;;;;11.70;6.78;;;14.20;99.10;;;;;;5010872;28;20056;-83
2022/11/13 15:32:14;;;;;;;9.95;6.28;;;14.20;97.60;;;;;;5011131;28;20426;-83
2022/11/13 15:34:59;;;;;;;12.55;6.45;;;14.20;97.70;;;;;;5011542;28;20552;-83
2022/11/13 15:37:45;;;;;;;9.70;6.88;;;14.20;98.50;;;;;;5011926;28;20194;-83
2022/11/13 15:40:32;;;;;;;13.10;7.32;;;14.20;99.20;;;;;;5005705;28;20132;-83
2022/11/13 15:43:19;;;;;;;11.85;7.07;;;14.10;99.80;;;;;;5011863;28;20093;-83
2022/11/13 15:46:09;;;;;;;12.60;7.32;;;14.00;99.90;;;;;;5009500;28;20080;-83
2022/11/13 15:48:55;;;;;;;11.77;6.88;;;14.00;99.90;;;;;;5008790;28;20533;-83
2022/11/13 15:51:43;;;;;;;11.48;7.05;;;13.90;99.90;;;;;;5010720;28;20112;-83
2022/11/13 15:54:31;;;;;;;14.57;7.60;;;13.80;99.90;;;;;;5006393;28;20065;-82
2022/11/13 15:57:20;;;;;;;12.45;7.55;;;13.80;99.90;;;;;;5010860;28;20049;-81
2022/11/13 16:00:10;;;;;;;11.18;7.68;;;13.70;99.90;;;;;;5010232;28;20057;-83
2022/11/13 16:02:57;;;;;;;13.63;6.78;;;13.60;99.90;;;;;;5011957;28;20593;-82
2022/11/13 16:05:42;;;;;;;11.52;7.47;;;13.50;99.90;;;;;;5008076;28;20053;-83
2022/11/13 16:08:27;;;;;;;14.95;7.10;;;13.50;99.90;;;;;;5011378;28;20164;-83
2022/11/13 16:11:14;;;;;;;18.30;7.22;;;13.40;99.90;;;;;;5005070;28;20081;-82